Puto Island — XUTS7 — position and weather

sailwx.info

Track history (hours):
 
Tides and Currents Weather Stations Pressure Air Temp Water Temp Dewpoint Dewpoint Depression Visibility Wind Speed Wind Dir Waves Ship Positions

Puto Island

Last reported at 2016-Apr-14 11:05 UTC. Time now 2016-Apr-30 18:45 UTC.
Position N 34°37' E 135°01'.
Warning: this ship's position is 16 days out of date.

Length 71 m; draft 3.2 m.

Type: Cargo ship. MMSI: 514198000.

Date/timePositionNaut miles runAvg speedWind from/ knotsBaromVisibWave heightAir tempDewpointWater temp
2016-Apr-14 11:05N 34°37' E 135°01'4 7.0
2016-Apr-14 10:33N 34°35' E 135°05'10 9.6
2016-Apr-14 09:33N 34°35' E 135°17'  
2016-Apr-11 22:30N 34°32' E 135°23'1 0.0
2016-Apr-10 00:23N 34°32' E 135°22'0 0.0
2016-Apr-09 23:17N 34°32' E 135°22'0 0.0
2016-Apr-09 19:29N 34°32' E 135°22'0 0.0
2016-Apr-09 18:17N 34°32' E 135°22'0 0.0
2016-Apr-09 17:23N 34°32' E 135°22'7 2.6
2016-Apr-09 14:34N 34°35' E 135°14'10 8.3
2016-Apr-09 13:19N 34°37' E 135°01'  
Track history (hours):
 
Tides and Currents Weather Stations Pressure Air Temp Water Temp Dewpoint Dewpoint Depression Visibility Wind Speed Wind Dir Waves Ship Positions

Puto Island

Last reported at 2016-Apr-14 11:05 UTC. Time now 2016-Apr-30 18:45 UTC.
Position N 34°37' E 135°01'.
Warning: this ship's position is 16 days out of date.

Length 71 m; draft 3.2 m.

Type: Cargo ship. MMSI: 514198000.

Date/timePositionNaut miles runAvg speedWind from/ knotsBaromVisibWave heightAir tempDewpointWater temp
2016-Apr-14 11:05N 34°37' E 135°01'4 7.0
2016-Apr-14 10:33N 34°35' E 135°05'10 9.6
2016-Apr-14 09:33N 34°35' E 135°17'  
2016-Apr-11 22:30N 34°32' E 135°23'1 0.0
2016-Apr-10 00:23N 34°32' E 135°22'0 0.0
2016-Apr-09 23:17N 34°32' E 135°22'0 0.0
2016-Apr-09 19:29N 34°32' E 135°22'0 0.0
2016-Apr-09 18:17N 34°32' E 135°22'0 0.0
2016-Apr-09 17:23N 34°32' E 135°22'7 2.6
2016-Apr-09 14:34N 34°35' E 135°14'10 8.3
2016-Apr-09 13:19N 34°37' E 135°01'  

Dump ship's entire track history